createdAt,value
2022-12-13T00:02:18.746Z,9.38
2022-12-13T00:04:46.063Z,9.52
2022-12-13T00:07:13.520Z,9.35
2022-12-13T00:09:42.887Z,9.15
2022-12-13T00:12:10.137Z,9.10
2022-12-13T00:14:38.352Z,8.55
2022-12-13T00:17:06.900Z,8.65
2022-12-13T00:19:34.183Z,9.63
2022-12-13T00:22:01.532Z,9.38
2022-12-13T00:24:28.876Z,10.13
2022-12-13T00:26:56.582Z,9.70
2022-12-13T00:29:23.825Z,9.52
2022-12-13T00:31:59.437Z,9.45
2022-12-13T00:34:28.142Z,8.70
2022-12-13T00:36:55.521Z,9.32
2022-12-13T00:39:22.857Z,8.88
2022-12-13T00:41:50.089Z,8.43
2022-12-13T00:44:19.029Z,8.93
2022-12-13T00:46:47.572Z,9.27
2022-12-13T00:49:14.885Z,8.93
2022-12-13T00:51:42.350Z,8.40
2022-12-13T00:54:10.667Z,8.70
2022-12-13T00:56:38.672Z,7.93
2022-12-13T00:59:06.253Z,7.80
2022-12-13T01:01:36.058Z,7.63
2022-12-13T01:04:04.366Z,6.38
2022-12-13T01:06:34.473Z,7.03
2022-12-13T01:09:02.063Z,6.55
2022-12-13T01:11:29.366Z,6.97
2022-12-13T01:13:56.789Z,8.43
2022-12-13T01:16:24.087Z,9.23
2022-12-13T01:18:51.654Z,8.80
2022-12-13T01:21:23.293Z,8.85
2022-12-13T01:23:50.664Z,8.27
2022-12-13T01:26:19.080Z,8.50
2022-12-13T01:28:46.963Z,7.88
2022-12-13T01:31:15.136Z,7.32
2022-12-13T01:33:42.816Z,7.75
2022-12-13T01:36:17.198Z,7.82
2022-12-13T01:38:44.818Z,6.88
2022-12-13T01:41:19.790Z,7.72
2022-12-13T01:43:47.078Z,7.93
2022-12-13T01:46:14.983Z,7.72
2022-12-13T01:48:45.383Z,8.07
2022-12-13T01:51:13.581Z,7.47
2022-12-13T01:53:41.713Z,6.30
2022-12-13T01:56:15.679Z,7.20
2022-12-13T01:58:43.229Z,6.95
2022-12-13T02:01:11.093Z,7.05
2022-12-13T02:03:38.650Z,8.48
2022-12-13T02:06:11.419Z,8.68
2022-12-13T02:08:41.153Z,9.15
2022-12-13T02:11:08.676Z,9.75
2022-12-13T02:13:38.996Z,10.30
2022-12-13T02:16:06.368Z,9.45
2022-12-13T02:18:39.787Z,8.60
2022-12-13T02:21:12.881Z,8.63
2022-12-13T02:23:40.082Z,9.30
2022-12-13T02:26:26.300Z,9.43
2022-12-13T02:28:56.367Z,8.98
2022-12-13T02:31:36.344Z,8.82
2022-12-13T02:34:07.588Z,9.60
2022-12-13T02:36:45.971Z,9.25
2022-12-13T02:39:30.710Z,9.48
2022-12-13T02:42:02.000Z,8.77
2022-12-13T02:44:40.277Z,9.70
2022-12-13T02:47:12.722Z,9.23
2022-12-13T02:49:50.883Z,9.70
2022-12-13T02:52:22.165Z,9.43
2022-12-13T02:54:50.070Z,8.77
2022-12-13T02:57:32.594Z,9.50
2022-12-13T03:00:05.926Z,8.73
2022-12-13T03:02:48.694Z,9.30
2022-12-13T03:05:54.597Z,9.00
2022-12-13T03:08:27.975Z,9.45
2022-12-13T03:10:58.175Z,9.45
2022-12-13T03:13:36.817Z,9.70
2022-12-13T03:16:26.140Z,9.60
2022-12-13T03:18:54.831Z,10.15
2022-12-13T03:21:22.689Z,9.70
2022-12-13T03:23:50.018Z,10.65
2022-12-13T03:26:27.636Z,10.63
2022-12-13T03:28:55.364Z,10.38
2022-12-13T03:31:22.829Z,10.98
2022-12-13T03:33:50.289Z,10.30
2022-12-13T03:36:19.039Z,11.60
2022-12-13T03:38:50.586Z,10.85
2022-12-13T03:41:19.048Z,11.73
2022-12-13T03:43:46.599Z,10.88
2022-12-13T03:46:13.998Z,11.30
2022-12-13T03:48:41.409Z,11.00
2022-12-13T03:51:08.939Z,10.43
2022-12-13T03:53:36.194Z,10.38
2022-12-13T03:56:04.677Z,11.13
2022-12-13T03:58:36.063Z,9.80
2022-12-13T04:01:08.869Z,11.20
2022-12-13T04:03:36.765Z,10.57
2022-12-13T04:06:04.348Z,11.70
2022-12-13T04:08:31.933Z,11.40
2022-12-13T04:10:59.216Z,10.57
2022-12-13T04:13:32.907Z,12.07
2022-12-13T04:16:00.513Z,10.82
2022-12-13T04:18:27.911Z,10.57
2022-12-13T04:20:55.308Z,9.93
2022-12-13T04:23:23.016Z,9.32
2022-12-13T04:25:50.507Z,9.55
2022-12-13T04:28:21.813Z,10.07
2022-12-13T04:30:53.152Z,9.93
2022-12-13T04:33:22.349Z,9.77
2022-12-13T04:35:50.043Z,10.77
2022-12-13T04:38:17.312Z,10.63
2022-12-13T04:40:44.535Z,10.48
2022-12-13T04:43:11.892Z,10.07
2022-12-13T04:45:39.288Z,11.80
2022-12-13T04:48:06.863Z,10.10
2022-12-13T04:50:34.279Z,11.95
2022-12-13T04:53:01.628Z,10.43
2022-12-13T04:55:28.947Z,11.35
2022-12-13T04:57:56.294Z,10.65
2022-12-13T05:00:23.576Z,11.02
2022-12-13T05:02:51.148Z,11.13
2022-12-13T05:05:18.911Z,10.98
2022-12-13T05:07:46.711Z,10.85
2022-12-13T05:10:34.007Z,11.38
2022-12-13T05:13:02.859Z,11.48
2022-12-13T05:15:30.894Z,10.80
2022-12-13T05:18:09.872Z,11.57
2022-12-13T05:20:37.929Z,10.05
2022-12-13T05:23:05.288Z,10.18
2022-12-13T05:25:34.202Z,10.80
2022-12-13T05:28:08.982Z,10.57
2022-12-13T05:30:48.759Z,10.02
2022-12-13T05:33:16.409Z,10.18
2022-12-13T05:35:43.786Z,9.98
2022-12-13T05:38:11.050Z,9.63
2022-12-13T05:40:38.440Z,10.75
2022-12-13T05:43:21.782Z,10.77
2022-12-13T05:45:50.053Z,9.77
2022-12-13T05:48:24.779Z,11.00
2022-12-13T05:51:10.831Z,11.23
2022-12-13T05:53:39.971Z,12.20
2022-12-13T05:56:07.508Z,10.98
2022-12-13T05:58:35.928Z,12.88
2022-12-13T06:01:13.288Z,11.93
2022-12-13T06:03:41.659Z,13.05
2022-12-13T06:06:10.107Z,12.05
2022-12-13T06:08:37.798Z,12.02
2022-12-13T06:11:10.838Z,11.32
2022-12-13T06:13:43.840Z,11.88
2022-12-13T06:16:23.173Z,12.25
2022-12-13T06:18:55.863Z,11.95
2022-12-13T06:21:39.162Z,13.10
2022-12-13T06:24:13.529Z,11.83
2022-12-13T06:26:40.714Z,12.75
2022-12-13T06:29:08.005Z,12.98
2022-12-13T06:31:35.649Z,11.98
2022-12-13T06:34:14.465Z,12.77
2022-12-13T06:36:43.102Z,13.48
2022-12-13T06:39:10.370Z,13.07
2022-12-13T06:41:37.818Z,12.48
2022-12-13T06:44:05.811Z,13.00
2022-12-13T06:46:33.475Z,12.43
2022-12-13T06:49:01.527Z,11.93
2022-12-13T06:51:32.502Z,12.52
2022-12-13T06:54:02.263Z,12.43
2022-12-13T06:56:30.154Z,12.85
2022-12-13T06:59:01.912Z,12.05
2022-12-13T07:01:36.895Z,12.25
2022-12-13T07:04:05.577Z,12.25
2022-12-13T07:06:52.933Z,12.40
2022-12-13T07:09:20.503Z,12.85
2022-12-13T07:11:51.935Z,12.35
2022-12-13T07:14:19.776Z,12.82
2022-12-13T07:16:47.136Z,12.02
2022-12-13T07:19:23.733Z,12.60
2022-12-13T07:21:52.174Z,12.13
2022-12-13T07:24:19.752Z,11.85
2022-12-13T07:26:47.364Z,12.27
2022-12-13T07:29:22.612Z,11.40
2022-12-13T07:31:50.431Z,12.75
2022-12-13T07:34:17.907Z,12.02
2022-12-13T07:36:45.212Z,11.98
2022-12-13T07:39:12.425Z,10.63
2022-12-13T07:41:39.965Z,12.52
2022-12-13T07:44:07.936Z,11.80
2022-12-13T07:46:35.383Z,11.57
2022-12-13T07:49:03.489Z,10.80
2022-12-13T07:51:30.908Z,11.75
2022-12-13T07:53:58.335Z,11.82
2022-12-13T07:56:25.887Z,12.38
2022-12-13T07:58:53.111Z,11.35
2022-12-13T08:01:20.610Z,11.57
2022-12-13T08:03:51.020Z,11.23
2022-12-13T08:06:20.003Z,10.35
2022-12-13T08:09:20.335Z,11.20
2022-12-13T08:11:48.958Z,11.15
2022-12-13T08:14:16.376Z,10.88
2022-12-13T08:16:43.969Z,11.20
2022-12-13T08:19:11.316Z,11.18
2022-12-13T08:21:57.356Z,10.75
2022-12-13T08:24:27.098Z,10.45
2022-12-13T08:26:55.106Z,10.30
2022-12-13T08:29:34.119Z,10.80
2022-12-13T08:32:08.416Z,10.75
2022-12-13T08:34:35.778Z,10.65
2022-12-13T08:37:04.128Z,9.73
2022-12-13T08:39:34.335Z,9.18
2022-12-13T08:42:14.890Z,10.52
2022-12-13T08:44:46.509Z,9.65
2022-12-13T08:47:23.249Z,9.80
2022-12-13T08:49:56.132Z,10.15
2022-12-13T08:52:31.279Z,9.85
2022-12-13T08:54:58.698Z,9.95
2022-12-13T08:57:26.257Z,11.13
2022-12-13T08:59:54.581Z,11.48
2022-12-13T09:02:22.046Z,11.52
2022-12-13T09:04:50.024Z,12.35
2022-12-13T09:07:17.322Z,10.38
2022-12-13T09:09:46.641Z,10.80
2022-12-13T09:12:30.765Z,9.70
2022-12-13T09:15:01.140Z,10.10
2022-12-13T09:17:36.372Z,10.43
2022-12-13T09:20:09.691Z,11.10
2022-12-13T09:22:39.176Z,11.23
2022-12-13T09:25:14.814Z,9.25
2022-12-13T09:27:57.164Z,9.35
2022-12-13T09:30:26.386Z,9.38
2022-12-13T09:32:59.223Z,9.40
2022-12-13T09:35:45.998Z,9.80
2022-12-13T09:38:13.401Z,10.35
2022-12-13T09:40:42.110Z,11.30
2022-12-13T09:43:21.950Z,11.20
2022-12-13T09:45:54.456Z,11.73
2022-12-13T09:48:34.562Z,10.10
2022-12-13T09:51:18.342Z,11.55
2022-12-13T09:53:51.303Z,11.15
2022-12-13T09:56:20.072Z,11.48
2022-12-13T09:58:52.327Z,11.35
2022-12-13T10:01:23.503Z,10.80
2022-12-13T10:03:52.242Z,11.82
2022-12-13T10:06:22.612Z,9.50
2022-12-13T10:08:57.859Z,9.82
2022-12-13T10:11:32.663Z,10.48
2022-12-13T10:14:15.672Z,10.32
2022-12-13T10:16:43.826Z,9.90
2022-12-13T10:19:30.422Z,9.77
2022-12-13T10:22:02.037Z,11.18
2022-12-13T10:24:48.524Z,10.23
2022-12-13T10:27:17.276Z,10.38
2022-12-13T10:30:01.693Z,10.85
2022-12-13T10:32:29.326Z,9.87
2022-12-13T10:34:58.430Z,10.45
2022-12-13T10:37:30.638Z,10.18
2022-12-13T10:39:58.531Z,11.07
2022-12-13T10:42:32.133Z,12.10
2022-12-13T10:45:15.161Z,10.25
2022-12-13T10:47:45.815Z,10.65
2022-12-13T10:50:25.960Z,9.88
2022-12-13T10:52:53.872Z,11.05
2022-12-13T10:55:29.308Z,10.73
2022-12-13T10:58:02.058Z,10.98
2022-12-13T11:00:35.013Z,10.57
2022-12-13T11:03:02.882Z,10.02
2022-12-13T11:05:33.401Z,11.15
2022-12-13T11:08:26.675Z,11.45
2022-12-13T11:11:01.887Z,10.95
2022-12-13T11:13:34.299Z,10.43
2022-12-13T11:16:01.981Z,11.20
2022-12-13T11:18:35.526Z,9.90
2022-12-13T11:21:03.937Z,10.20
2022-12-13T11:23:31.216Z,11.35
2022-12-13T11:26:00.779Z,10.60
2022-12-13T11:28:48.333Z,11.18
2022-12-13T11:31:30.835Z,10.70
2022-12-13T11:34:04.427Z,10.35
2022-12-13T11:36:37.520Z,10.55
2022-12-13T11:39:16.900Z,11.60
2022-12-13T11:41:55.627Z,10.43
2022-12-13T11:44:28.550Z,10.82
2022-12-13T11:46:57.038Z,9.80
2022-12-13T11:49:45.902Z,10.23
2022-12-13T11:52:13.402Z,10.80
2022-12-13T11:54:47.648Z,10.25
2022-12-13T11:57:28.939Z,10.77
2022-12-13T12:00:03.567Z,13.05
2022-12-13T12:02:45.369Z,10.57
2022-12-13T12:05:22.558Z,10.20
2022-12-13T12:08:21.153Z,9.43
2022-12-13T12:10:49.422Z,9.93
2022-12-13T12:13:33.540Z,9.57
2022-12-13T12:16:16.146Z,9.65
2022-12-13T12:18:43.839Z,9.05
2022-12-13T12:21:37.328Z,10.65
2022-12-13T12:24:12.275Z,9.02
2022-12-13T12:26:58.568Z,9.20
2022-12-13T12:29:26.042Z,9.43
2022-12-13T12:32:00.035Z,8.88
2022-12-13T12:34:36.697Z,9.57
2022-12-13T12:37:22.449Z,9.00
2022-12-13T12:40:52.295Z,9.45
2022-12-13T12:43:26.060Z,9.82
2022-12-13T12:45:57.481Z,8.98
2022-12-13T12:48:56.900Z,9.05
2022-12-13T12:51:18.647Z,10.05
2022-12-13T12:53:50.658Z,10.23
2022-12-13T12:56:36.657Z,9.73
2022-12-13T12:59:03.979Z,9.95
2022-12-13T13:01:51.842Z,9.23
2022-12-13T13:04:22.096Z,9.85
2022-12-13T13:06:54.173Z,9.88
2022-12-13T13:09:31.643Z,9.25
2022-12-13T13:11:59.506Z,9.45
2022-12-13T13:14:39.884Z,9.88
2022-12-13T13:17:25.711Z,10.20
2022-12-13T13:20:12.683Z,9.77
2022-12-13T13:22:44.430Z,10.00
2022-12-13T13:25:25.886Z,9.10
2022-12-13T13:28:01.933Z,9.25
2022-12-13T13:30:30.329Z,10.13
2022-12-13T13:32:58.352Z,9.30
2022-12-13T13:35:29.136Z,10.02
2022-12-13T13:38:04.478Z,10.13
2022-12-13T13:40:38.776Z,10.48
2022-12-13T13:43:06.271Z,11.10
2022-12-13T13:45:53.318Z,10.63
2022-12-13T13:48:20.664Z,11.55
2022-12-13T13:50:47.880Z,11.32
2022-12-13T13:53:35.380Z,12.23
2022-12-13T13:56:21.232Z,12.75
2022-12-13T13:58:49.565Z,12.52
2022-12-13T14:01:35.816Z,14.30
2022-12-13T14:04:22.614Z,12.35
2022-12-13T14:06:51.695Z,13.18
2022-12-13T14:09:18.921Z,12.82
2022-12-13T14:11:50.647Z,13.00
2022-12-13T14:14:50.112Z,12.55
2022-12-13T14:17:23.764Z,11.98
2022-12-13T14:20:00.291Z,11.25
2022-12-13T14:22:35.343Z,12.13
2022-12-13T14:27:45.383Z,11.32
2022-12-13T14:30:27.532Z,12.07
2022-12-13T14:32:56.149Z,11.77
2022-12-13T14:35:26.827Z,11.70
2022-12-13T14:38:20.697Z,12.90
2022-12-13T14:40:50.017Z,11.40
2022-12-13T14:43:27.649Z,11.02
2022-12-13T14:45:59.144Z,10.65
2022-12-13T14:48:28.699Z,9.65
2022-12-13T14:50:57.533Z,10.85
2022-12-13T14:53:37.383Z,11.40
2022-12-13T14:56:27.608Z,10.95
2022-12-13T14:59:00.753Z,11.27
2022-12-13T15:01:30.899Z,11.75
2022-12-13T15:04:17.459Z,12.02
2022-12-13T15:06:48.502Z,11.85
2022-12-13T15:09:16.898Z,11.10
2022-12-13T15:11:45.303Z,11.55
2022-12-13T15:14:17.032Z,11.13
2022-12-13T15:16:51.241Z,10.88
2022-12-13T15:19:30.112Z,10.57
2022-12-13T15:22:14.530Z,11.10
2022-12-13T15:24:51.032Z,10.57
2022-12-13T15:27:27.204Z,11.07
2022-12-13T15:29:54.889Z,11.07
2022-12-13T15:32:25.712Z,10.15
2022-12-13T15:34:53.207Z,10.80
2022-12-13T15:37:28.957Z,10.30
2022-12-13T15:40:00.151Z,9.77
2022-12-13T15:42:33.730Z,10.40
2022-12-13T15:45:02.623Z,10.02
2022-12-13T15:47:30.092Z,10.20
2022-12-13T15:50:01.725Z,10.07
2022-12-13T15:52:32.263Z,9.77
2022-12-13T15:55:02.403Z,9.90
2022-12-13T15:57:32.227Z,9.73
2022-12-13T16:00:31.394Z,10.05
2022-12-13T16:03:13.613Z,10.10
2022-12-13T16:05:51.289Z,10.77
2022-12-13T16:08:39.339Z,9.65
2022-12-13T16:11:08.511Z,10.07
2022-12-13T16:13:37.659Z,11.00
2022-12-13T16:16:27.421Z,11.38
2022-12-13T16:18:59.596Z,10.82
2022-12-13T16:21:28.035Z,14.82
2022-12-13T16:23:55.363Z,23.00
2022-12-13T16:26:27.186Z,20.63
2022-12-13T16:28:55.369Z,19.58
2022-12-13T16:31:23.972Z,15.93
2022-12-13T16:33:51.599Z,16.80
2022-12-13T16:36:19.038Z,14.10
2022-12-13T16:38:46.423Z,15.52
2022-12-13T16:41:14.810Z,17.25
2022-12-13T16:44:02.428Z,16.30
2022-12-13T16:47:14.615Z,16.30
2022-12-13T16:49:19.655Z,15.02
2022-12-13T16:51:48.914Z,16.02
2022-12-13T16:54:17.125Z,15.48
2022-12-13T16:56:44.423Z,14.65
2022-12-13T16:59:14.060Z,16.83
2022-12-13T17:01:42.031Z,16.65
2022-12-13T17:04:16.349Z,15.65
2022-12-13T17:06:46.827Z,15.48
2022-12-13T17:09:14.744Z,15.13
2022-12-13T17:11:42.095Z,14.68
2022-12-13T17:14:09.418Z,15.13
2022-12-13T17:16:36.857Z,15.38
2022-12-13T17:19:04.160Z,17.58
2022-12-13T17:21:31.549Z,16.10
2022-12-13T17:24:00.683Z,14.52
2022-12-13T17:26:28.713Z,14.80
2022-12-13T17:28:55.969Z,14.30
2022-12-13T17:31:23.720Z,14.85
2022-12-13T17:33:52.383Z,15.23
2022-12-13T17:36:19.699Z,14.52
2022-12-13T17:38:47.679Z,15.30
2022-12-13T17:41:18.337Z,15.25
2022-12-13T17:43:45.723Z,14.57
2022-12-13T17:46:14.684Z,15.23
2022-12-13T17:48:42.786Z,14.60
2022-12-13T17:51:11.439Z,14.98
2022-12-13T17:53:42.478Z,14.10
2022-12-13T17:56:12.189Z,15.88
2022-12-13T17:58:40.160Z,15.30
2022-12-13T18:01:14.729Z,14.73
2022-12-13T18:03:42.477Z,14.23
2022-12-13T18:06:09.779Z,14.93
2022-12-13T18:08:40.466Z,14.65
2022-12-13T18:13:56.339Z,14.20
2022-12-13T18:16:25.298Z,15.35
2022-12-13T18:18:55.989Z,17.58
2022-12-13T18:21:24.051Z,15.93
2022-12-13T18:23:55.704Z,16.05
2022-12-13T18:26:24.841Z,15.27
2022-12-13T18:28:52.514Z,15.50
2022-12-13T18:31:22.207Z,15.95
2022-12-13T18:33:50.437Z,15.93
2022-12-13T18:36:18.098Z,16.20
2022-12-13T18:38:45.458Z,14.90
2022-12-13T18:41:16.804Z,16.30
2022-12-13T18:43:44.733Z,17.00
2022-12-13T18:46:12.642Z,16.42
2022-12-13T18:48:41.120Z,17.52
2022-12-13T18:51:09.754Z,15.05
2022-12-13T18:53:37.762Z,15.55
2022-12-13T18:56:16.091Z,15.35
2022-12-13T18:58:45.984Z,15.82
2022-12-13T19:01:13.772Z,15.07
2022-12-13T19:03:43.015Z,15.00
2022-12-13T19:06:12.104Z,15.43
2022-12-13T19:08:39.662Z,16.08
2022-12-13T19:11:07.108Z,16.05
2022-12-13T19:13:34.515Z,15.38
2022-12-13T19:16:06.925Z,15.45
2022-12-13T19:18:34.504Z,15.77
2022-12-13T19:21:01.954Z,15.38
2022-12-13T19:23:29.931Z,15.05
2022-12-13T19:25:57.493Z,14.35
2022-12-13T19:28:24.955Z,14.45
2022-12-13T19:30:52.291Z,15.32
2022-12-13T19:33:19.690Z,14.32
2022-12-13T19:35:47.291Z,14.68
2022-12-13T19:38:14.761Z,15.73
2022-12-13T19:40:43.331Z,14.90
2022-12-13T19:43:11.452Z,15.43
2022-12-13T19:45:38.999Z,15.57
2022-12-13T19:48:06.445Z,14.25
2022-12-13T19:50:33.735Z,13.98
2022-12-13T19:53:01.163Z,14.50
2022-12-13T19:55:28.442Z,14.55
2022-12-13T19:57:55.964Z,13.93
2022-12-13T20:00:23.286Z,14.02
2022-12-13T20:02:50.777Z,13.70
2022-12-13T20:05:19.838Z,13.13
2022-12-13T20:07:47.331Z,15.25
2022-12-13T20:10:15.946Z,13.65
2022-12-13T20:12:44.526Z,14.15
2022-12-13T20:15:11.914Z,12.93
2022-12-13T20:17:39.306Z,13.32
2022-12-13T20:20:09.532Z,13.68
2022-12-13T20:22:36.960Z,13.50
2022-12-13T20:25:04.522Z,12.40
2022-12-13T20:27:31.826Z,11.57
2022-12-13T20:29:59.656Z,13.50
2022-12-13T20:32:26.949Z,12.80
2022-12-13T20:34:56.425Z,13.77
2022-12-13T20:37:24.602Z,12.63
2022-12-13T20:39:51.799Z,12.80
2022-12-13T20:42:19.171Z,12.13
2022-12-13T20:44:46.585Z,13.13
2022-12-13T20:47:13.834Z,13.60
2022-12-13T20:49:41.263Z,12.20
2022-12-13T20:52:08.716Z,12.52
2022-12-13T20:54:36.220Z,12.60
2022-12-13T20:57:03.525Z,11.80
2022-12-13T20:59:30.843Z,12.30
2022-12-13T21:01:58.246Z,15.45
2022-12-13T21:04:25.766Z,11.38
2022-12-13T21:06:53.219Z,11.32
2022-12-13T21:09:20.555Z,11.68
2022-12-13T21:11:48.803Z,11.30
2022-12-13T21:14:25.252Z,11.00
2022-12-13T21:16:57.034Z,12.23
2022-12-13T21:19:39.417Z,11.02
2022-12-13T21:22:07.936Z,12.38
2022-12-13T21:24:35.273Z,11.32
2022-12-13T21:27:02.572Z,12.13
2022-12-13T21:29:29.810Z,11.35
2022-12-13T21:31:57.301Z,11.90
2022-12-13T21:34:24.836Z,11.80
2022-12-13T21:36:52.899Z,11.57
2022-12-13T21:39:22.719Z,11.50
2022-12-13T21:41:50.523Z,11.57
2022-12-13T21:44:18.232Z,12.25
2022-12-13T21:49:33.287Z,10.35
2022-12-13T21:52:00.575Z,11.45
2022-12-13T21:54:27.924Z,11.30
2022-12-13T21:57:13.948Z,10.73
2022-12-13T21:59:41.283Z,11.70
2022-12-13T22:02:13.329Z,10.75
2022-12-13T22:04:51.006Z,11.65
2022-12-13T22:07:22.345Z,11.82
2022-12-13T22:09:50.094Z,10.68
2022-12-13T22:12:19.245Z,10.55
2022-12-13T22:14:47.059Z,11.50
2022-12-13T22:17:14.843Z,10.95
2022-12-13T22:19:42.301Z,10.02
2022-12-13T22:22:09.579Z,10.98
2022-12-13T22:24:36.897Z,10.93
2022-12-13T22:27:04.264Z,11.38
2022-12-13T22:29:31.557Z,11.45
2022-12-13T22:31:58.818Z,10.38
2022-12-13T22:34:26.293Z,11.57
2022-12-13T22:36:53.667Z,11.85
2022-12-13T22:39:22.054Z,10.88
2022-12-13T22:41:50.185Z,11.23
2022-12-13T22:44:18.532Z,10.07
2022-12-13T22:46:45.903Z,10.20
2022-12-13T22:49:14.515Z,10.35
2022-12-13T22:51:42.059Z,10.85
2022-12-13T22:54:09.456Z,10.48
2022-12-13T22:56:36.802Z,9.57
2022-12-13T22:59:07.107Z,9.98
2022-12-13T23:01:39.102Z,10.65
2022-12-13T23:04:07.051Z,10.30
2022-12-13T23:06:36.316Z,11.45
2022-12-13T23:09:05.522Z,9.70
2022-12-13T23:11:51.713Z,11.60
2022-12-13T23:14:20.643Z,10.43
2022-12-13T23:16:50.546Z,11.88
2022-12-13T23:19:41.028Z,10.30
2022-12-13T23:22:07.416Z,9.88
2022-12-13T23:24:34.888Z,10.40
2022-12-13T23:27:02.171Z,10.95
2022-12-13T23:29:29.841Z,9.95
2022-12-13T23:31:57.141Z,10.55
2022-12-13T23:34:24.435Z,10.07
2022-12-13T23:36:51.761Z,10.45
2022-12-13T23:39:18.996Z,10.35
2022-12-13T23:41:46.292Z,10.57
2022-12-13T23:44:13.566Z,10.40
2022-12-13T23:46:40.852Z,10.18
2022-12-13T23:49:08.752Z,9.90
2022-12-13T23:51:38.058Z,11.05
2022-12-13T23:54:06.153Z,10.27
2022-12-13T23:56:33.462Z,10.02
2022-12-13T23:59:00.827Z,9.85
